sensor_id;sensor_type;location;lat;lon;timestamp;pressure;altitude;pressure_sealevel;temperature;humidity
11888;BME280;6003;42.756;23.130;2023-05-22T00:01:07;155614.28;;;12.43;100.00
11888;BME280;6003;42.756;23.130;2023-05-22T00:03:34;155620.84;;;12.46;100.00
11888;BME280;6003;42.756;23.130;2023-05-22T00:06:03;155619.53;;;12.45;100.00
11888;BME280;6003;42.756;23.130;2023-05-22T00:08:34;155624.84;;;12.47;100.00
11888;BME280;6003;42.756;23.130;2023-05-22T00:11:01;155630.16;;;12.49;100.00
11888;BME280;6003;42.756;23.130;2023-05-22T00:13:28;155638.09;;;12.52;100.00
11888;BME280;6003;42.756;23.130;2023-05-22T00:15:56;155638.09;;;12.52;100.00
11888;BME280;6003;42.756;23.130;2023-05-22T00:18:22;155632.78;;;12.50;100.00
11888;BME280;6003;42.756;23.130;2023-05-22T00:20:51;155630.16;;;12.49;100.00
11888;BME280;6003;42.756;23.130;2023-05-22T00:23:19;155644.72;;;12.55;100.00
11888;BME280;6003;42.756;23.130;2023-05-22T00:25:46;155624.84;;;12.47;100.00
11888;BME280;6003;42.756;23.130;2023-05-22T00:28:16;155619.53;;;12.45;100.00
11888;BME280;6003;42.756;23.130;2023-05-22T00:30:43;155624.84;;;12.47;100.00
11888;BME280;6003;42.756;23.130;2023-05-22T00:33:09;155632.78;;;12.50;100.00
11888;BME280;6003;42.756;23.130;2023-05-22T00:35:37;155627.47;;;12.48;100.00
11888;BME280;6003;42.756;23.130;2023-05-22T00:38:04;155619.53;;;12.45;100.00
11888;BME280;6003;42.756;23.130;2023-05-22T00:40:32;155618.22;;;12.45;100.00
11888;BME280;6003;42.756;23.130;2023-05-22T00:42:59;155627.47;;;12.48;100.00
11888;BME280;6003;42.756;23.130;2023-05-22T00:45:32;155612.91;;;12.42;100.00
11888;BME280;6003;42.756;23.130;2023-05-22T00:47:59;155622.22;;;12.46;100.00
11888;BME280;6003;42.756;23.130;2023-05-22T00:50:26;155622.22;;;12.46;100.00
11888;BME280;6003;42.756;23.130;2023-05-22T00:52:53;155608.97;;;12.41;100.00
11888;BME280;6003;42.756;23.130;2023-05-22T00:55:20;155598.34;;;12.37;100.00
11888;BME280;6003;42.756;23.130;2023-05-22T00:57:49;155585.16;;;12.32;100.00
11888;BME280;6003;42.756;23.130;2023-05-22T01:00:17;155585.16;;;12.32;100.00
11888;BME280;6003;42.756;23.130;2023-05-22T01:02:44;155579.84;;;12.30;100.00
11888;BME280;6003;42.756;23.130;2023-05-22T01:05:11;155574.53;;;12.28;100.00
11888;BME280;6003;42.756;23.130;2023-05-22T01:07:42;155541.47;;;12.15;100.00
11888;BME280;6003;42.756;23.130;2023-05-22T01:10:10;155542.78;;;12.15;100.00
11888;BME280;6003;42.756;23.130;2023-05-22T01:12:43;155532.22;;;12.11;100.00
11888;BME280;6003;42.756;23.130;2023-05-22T01:15:19;155508.34;;;12.02;100.00
11888;BME280;6003;42.756;23.130;2023-05-22T01:17:53;155499.09;;;11.99;100.00
11888;BME280;6003;42.756;23.130;2023-05-22T01:20:25;155518.97;;;12.06;100.00
11888;BME280;6003;42.756;23.130;2023-05-22T01:26:12;155500.41;;;11.99;100.00
11888;BME280;6003;42.756;23.130;2023-05-22T01:28:55;155476.59;;;11.90;100.00
11888;BME280;6003;42.756;23.130;2023-05-22T01:31:30;155468.66;;;11.87;100.00
11888;BME280;6003;42.756;23.130;2023-05-22T01:33:59;155468.66;;;11.87;100.00
11888;BME280;6003;42.756;23.130;2023-05-22T01:36:30;155462.00;;;11.84;100.00
11888;BME280;6003;42.756;23.130;2023-05-22T01:39:00;155456.69;;;11.82;100.00
11888;BME280;6003;42.756;23.130;2023-05-22T01:41:31;155442.13;;;11.77;100.00
11888;BME280;6003;42.756;23.130;2023-05-22T01:43:59;155426.25;;;11.70;100.00
11888;BME280;6003;42.756;23.130;2023-05-22T01:46:28;155414.38;;;11.66;100.00
11888;BME280;6003;42.756;23.130;2023-05-22T01:48:55;155414.38;;;11.66;100.00
11888;BME280;6003;42.756;23.130;2023-05-22T01:51:27;155407.78;;;11.63;100.00
11888;BME280;6003;42.756;23.130;2023-05-22T01:54:00;155394.53;;;11.58;100.00
11888;BME280;6003;42.756;23.130;2023-05-22T01:56:33;155381.28;;;11.53;100.00
11888;BME280;6003;42.756;23.130;2023-05-22T01:59:09;155373.34;;;11.50;100.00
11888;BME280;6003;42.756;23.130;2023-05-22T02:01:40;155358.81;;;11.44;100.00
11888;BME280;6003;42.756;23.130;2023-05-22T02:04:09;155352.19;;;11.42;100.00
11888;BME280;6003;42.756;23.130;2023-05-22T02:06:36;155354.88;;;11.43;100.00
11888;BME280;6003;42.756;23.130;2023-05-22T02:09:04;155336.31;;;11.36;100.00
11888;BME280;6003;42.756;23.130;2023-05-22T02:11:33;155328.38;;;11.33;100.00
11888;BME280;6003;42.756;23.130;2023-05-22T02:14:03;155328.38;;;11.33;100.00
11888;BME280;6003;42.756;23.130;2023-05-22T02:16:30;155324.44;;;11.31;100.00
11888;BME280;6003;42.756;23.130;2023-05-22T02:19:01;155320.47;;;11.29;100.00
11888;BME280;6003;42.756;23.130;2023-05-22T02:21:31;155317.84;;;11.28;100.00
11888;BME280;6003;42.756;23.130;2023-05-22T02:23:58;155305.91;;;11.24;100.00
11888;BME280;6003;42.756;23.130;2023-05-22T02:26:25;155304.59;;;11.23;100.00
11888;BME280;6003;42.756;23.130;2023-05-22T02:28:52;155291.34;;;11.18;100.00
11888;BME280;6003;42.756;23.130;2023-05-22T02:31:19;155282.13;;;11.15;100.00
11888;BME280;6003;42.756;23.130;2023-05-22T02:33:46;155278.13;;;11.13;100.00
11888;BME280;6003;42.756;23.130;2023-05-22T02:36:14;155254.34;;;11.04;100.00
11888;BME280;6003;42.756;23.130;2023-05-22T02:38:41;155237.16;;;10.97;100.00
11888;BME280;6003;42.756;23.130;2023-05-22T02:41:07;155221.31;;;10.91;100.00
11888;BME280;6003;42.756;23.130;2023-05-22T02:43:34;155216.00;;;10.89;100.00
11888;BME280;6003;42.756;23.130;2023-05-22T02:46:01;155206.75;;;10.86;100.00
11888;BME280;6003;42.756;23.130;2023-05-22T02:48:28;155197.50;;;10.82;100.00
11888;BME280;6003;42.756;23.130;2023-05-22T02:50:54;155202.75;;;10.84;100.00
11888;BME280;6003;42.756;23.130;2023-05-22T02:53:23;155206.75;;;10.86;100.00
11888;BME280;6003;42.756;23.130;2023-05-22T02:55:49;155220.00;;;10.91;100.00
11888;BME280;6003;42.756;23.130;2023-05-22T02:58:17;155218.63;;;10.90;100.00
11888;BME280;6003;42.756;23.130;2023-05-22T03:00:47;155206.75;;;10.86;100.00
11888;BME280;6003;42.756;23.130;2023-05-22T03:03:14;155210.69;;;10.87;100.00
11888;BME280;6003;42.756;23.130;2023-05-22T03:05:42;155223.94;;;10.92;100.00
11888;BME280;6003;42.756;23.130;2023-05-22T03:08:10;155220.00;;;10.91;100.00
11888;BME280;6003;42.756;23.130;2023-05-22T03:10:38;155230.53;;;10.95;100.00
11888;BME280;6003;42.756;23.130;2023-05-22T03:13:05;155245.09;;;11.00;100.00
11888;BME280;6003;42.756;23.130;2023-05-22T03:15:32;155254.34;;;11.04;100.00
11888;BME280;6003;42.756;23.130;2023-05-22T03:17:59;155290.03;;;11.18;100.00
11888;BME280;6003;42.756;23.130;2023-05-22T03:20:25;155317.84;;;11.28;100.00
11888;BME280;6003;42.756;23.130;2023-05-22T03:22:52;155339.00;;;11.37;100.00
11888;BME280;6003;42.756;23.130;2023-05-22T03:25:19;155356.19;;;11.43;100.00
11888;BME280;6003;42.756;23.130;2023-05-22T03:27:47;155378.66;;;11.52;100.00
11888;BME280;6003;42.756;23.130;2023-05-22T03:30:14;155409.09;;;11.64;100.00
11888;BME280;6003;42.756;23.130;2023-05-22T03:32:41;155468.66;;;11.87;100.00
11888;BME280;6003;42.756;23.130;2023-05-22T03:35:08;155532.22;;;12.11;100.00
11888;BME280;6003;42.756;23.130;2023-05-22T03:37:35;155569.28;;;12.26;100.00
11888;BME280;6003;42.756;23.130;2023-05-22T03:40:02;155579.84;;;12.30;100.00
11888;BME280;6003;42.756;23.130;2023-05-22T03:42:30;155619.53;;;12.45;100.00
11888;BME280;6003;42.756;23.130;2023-05-22T03:44:58;155712.22;;;12.81;100.00
11888;BME280;6003;42.756;23.130;2023-05-22T03:47:25;155770.50;;;13.03;100.00
11888;BME280;6003;42.756;23.130;2023-05-22T03:49:52;155815.53;;;13.21;100.00
11888;BME280;6003;42.756;23.130;2023-05-22T03:52:19;155871.19;;;13.42;100.00
11888;BME280;6003;42.756;23.130;2023-05-22T03:54:45;155945.38;;;13.71;100.00
11888;BME280;6003;42.756;23.130;2023-05-22T03:57:12;156006.34;;;13.94;100.00
11888;BME280;6003;42.756;23.130;2023-05-22T03:59:40;156060.66;;;14.15;100.00
11888;BME280;6003;42.756;23.130;2023-05-22T04:02:08;156105.78;;;14.33;100.00
11888;BME280;6003;42.756;23.130;2023-05-22T04:04:37;156123.00;;;14.39;100.00
11888;BME280;6003;42.756;23.130;2023-05-22T04:07:05;156138.91;;;14.45;100.00
11888;BME280;6003;42.756;23.130;2023-05-22T04:09:34;156160.16;;;14.54;100.00
11888;BME280;6003;42.756;23.130;2023-05-22T04:12:02;156184.03;;;14.63;100.00
11888;BME280;6003;42.756;23.130;2023-05-22T04:14:29;156332.56;;;15.20;100.00
11888;BME280;6003;42.756;23.130;2023-05-22T04:16:56;156645.81;;;16.41;97.53
11888;BME280;6003;42.756;23.130;2023-05-22T04:19:25;156980.59;;;17.70;89.99
11888;BME280;6003;42.756;23.130;2023-05-22T04:21:55;157293.06;;;18.90;84.58
11888;BME280;6003;42.756;23.130;2023-05-22T04:24:22;157576.53;;;19.99;79.95
11888;BME280;6003;42.756;23.130;2023-05-22T04:26:49;157816.25;;;20.91;75.32
11888;BME280;6003;42.756;23.130;2023-05-22T04:29:16;158020.13;;;21.69;71.54
11888;BME280;6003;42.756;23.130;2023-05-22T04:31:46;158164.16;;;22.24;68.42
11888;BME280;6003;42.756;23.130;2023-05-22T04:34:14;158237.44;;;22.52;66.36
11888;BME280;6003;42.756;23.130;2023-05-22T04:36:43;158237.44;;;22.52;63.88
11888;BME280;6003;42.756;23.130;2023-05-22T04:39:11;158152.13;;;22.20;65.38
11888;BME280;6003;42.756;23.130;2023-05-22T04:41:38;158197.47;;;22.37;63.69
11888;BME280;6003;42.756;23.130;2023-05-22T04:44:05;158229.44;;;22.49;62.31
11888;BME280;6003;42.756;23.130;2023-05-22T04:46:32;158242.81;;;22.55;61.16
11888;BME280;6003;42.756;23.130;2023-05-22T04:49:00;158080.09;;;21.92;61.54
11888;BME280;6003;42.756;23.130;2023-05-22T04:51:27;157890.84;;;21.19;65.06
11888;BME280;6003;42.756;23.130;2023-05-22T04:53:56;157744.38;;;20.63;68.16
11888;BME280;6003;42.756;23.130;2023-05-22T04:56:23;157683.03;;;20.40;70.23
11888;BME280;6003;42.756;23.130;2023-05-22T04:58:51;157724.38;;;20.56;67.52
11888;BME280;6003;42.756;23.130;2023-05-22T05:01:18;157842.91;;;21.01;69.49
11888;BME280;6003;42.756;23.130;2023-05-22T05:03:45;158125.41;;;22.09;63.70
11888;BME280;6003;42.756;23.130;2023-05-22T05:06:12;158178.81;;;22.30;62.46
11888;BME280;6003;42.756;23.130;2023-05-22T05:08:38;158234.81;;;22.51;60.49
11888;BME280;6003;42.756;23.130;2023-05-22T05:11:08;158301.47;;;22.77;61.12
11888;BME280;6003;42.756;23.130;2023-05-22T05:13:34;158136.09;;;22.14;61.80
11888;BME280;6003;42.756;23.130;2023-05-22T05:16:01;158032.13;;;21.74;64.28
11888;BME280;6003;42.756;23.130;2023-05-22T05:18:28;158242.81;;;22.55;60.68
11888;BME280;6003;42.756;23.130;2023-05-22T05:20:55;158357.53;;;22.98;59.97
11888;BME280;6003;42.756;23.130;2023-05-22T05:23:22;158477.56;;;23.45;59.18
11888;BME280;6003;42.756;23.130;2023-05-22T05:25:48;158659.16;;;24.14;57.58
11888;BME280;6003;42.756;23.130;2023-05-22T05:28:17;158771.34;;;24.57;54.57
11888;BME280;6003;42.756;23.130;2023-05-22T05:30:44;158803.38;;;24.69;54.11
11888;BME280;6003;42.756;23.130;2023-05-22T05:33:10;158677.81;;;24.21;53.46
11888;BME280;6003;42.756;23.130;2023-05-22T05:35:37;158729.88;;;24.41;51.87
11888;BME280;6003;42.756;23.130;2023-05-22T05:38:04;158553.72;;;23.74;52.33
11888;BME280;6003;42.756;23.130;2023-05-22T05:40:31;158719.22;;;24.37;53.97
11888;BME280;6003;42.756;23.130;2023-05-22T05:42:58;158848.78;;;24.87;50.39
11888;BME280;6003;42.756;23.130;2023-05-22T05:45:26;158883.47;;;25.00;49.12
11888;BME280;6003;42.756;23.130;2023-05-22T05:47:53;158934.28;;;25.19;50.29
11888;BME280;6003;42.756;23.130;2023-05-22T05:50:20;158792.66;;;24.65;50.97
11888;BME280;6003;42.756;23.130;2023-05-22T05:52:46;158705.84;;;24.32;49.80
11888;BME280;6003;42.756;23.130;2023-05-22T05:55:13;158433.59;;;23.28;52.12
11888;BME280;6003;42.756;23.130;2023-05-22T05:57:41;158595.06;;;23.90;53.72
11888;BME280;6003;42.756;23.130;2023-05-22T06:00:09;158621.78;;;24.00;50.74
11888;BME280;6003;42.756;23.130;2023-05-22T06:02:37;158632.44;;;24.04;52.85
11888;BME280;6003;42.756;23.130;2023-05-22T06:05:05;158719.22;;;24.37;49.93
11888;BME280;6003;42.756;23.130;2023-05-22T06:07:33;158768.63;;;24.56;51.64
11888;BME280;6003;42.756;23.130;2023-05-22T06:10:03;158560.34;;;23.76;50.24
11888;BME280;6003;42.756;23.130;2023-05-22T06:12:30;158450.91;;;23.34;52.47
11888;BME280;6003;42.756;23.130;2023-05-22T06:14:56;158373.56;;;23.05;53.19
11888;BME280;6003;42.756;23.130;2023-05-22T06:17:23;158477.56;;;23.45;53.12
11888;BME280;6003;42.756;23.130;2023-05-22T06:19:51;158741.97;;;24.46;52.06
11888;BME280;6003;42.756;23.130;2023-05-22T06:22:18;158755.28;;;24.51;50.25
11888;BME280;6003;42.756;23.130;2023-05-22T06:24:45;158744.63;;;24.47;50.37
11888;BME280;6003;42.756;23.130;2023-05-22T06:27:12;158709.84;;;24.33;50.30
11888;BME280;6003;42.756;23.130;2023-05-22T06:29:39;158301.47;;;22.77;52.20
11888;BME280;6003;42.756;23.130;2023-05-22T06:32:06;158206.78;;;22.41;54.38
11888;BME280;6003;42.756;23.130;2023-05-22T06:34:33;158024.16;;;21.71;56.57
11888;BME280;6003;42.756;23.130;2023-05-22T06:37:01;158093.44;;;21.97;56.70
11888;BME280;6003;42.756;23.130;2023-05-22T06:39:28;157957.53;;;21.45;57.46
11888;BME280;6003;42.756;23.130;2023-05-22T06:41:55;157962.84;;;21.47;55.11
11888;BME280;6003;42.756;23.130;2023-05-22T06:44:22;157910.84;;;21.27;56.71
11888;BME280;6003;42.756;23.130;2023-05-22T06:46:50;157890.84;;;21.19;59.89
11888;BME280;6003;42.756;23.130;2023-05-22T06:49:16;157786.94;;;20.80;58.82
11888;BME280;6003;42.756;23.130;2023-05-22T06:51:44;157637.75;;;20.22;58.73
11888;BME280;6003;42.756;23.130;2023-05-22T06:54:13;157516.66;;;19.76;61.96
11888;BME280;6003;42.756;23.130;2023-05-22T06:56:40;157440.75;;;19.47;62.12
11888;BME280;6003;42.756;23.130;2023-05-22T06:59:08;157451.44;;;19.51;62.44
11888;BME280;6003;42.756;23.130;2023-05-22T07:01:36;157339.66;;;19.08;63.75
11888;BME280;6003;42.756;23.130;2023-05-22T07:04:03;157356.94;;;19.14;65.04
11888;BME280;6003;42.756;23.130;2023-05-22T07:06:30;157463.38;;;19.55;63.61
11888;BME280;6003;42.756;23.130;2023-05-22T07:09:03;157435.41;;;19.45;61.95
11888;BME280;6003;42.756;23.130;2023-05-22T07:11:32;157339.66;;;19.08;65.74
11888;BME280;6003;42.756;23.130;2023-05-22T07:14:00;157438.09;;;19.46;66.58
11888;BME280;6003;42.756;23.130;2023-05-22T07:16:27;157423.47;;;19.40;65.98
11888;BME280;6003;42.756;23.130;2023-05-22T07:18:55;157567.22;;;19.95;62.82
11888;BME280;6003;42.756;23.130;2023-05-22T07:21:22;157701.69;;;20.47;64.26
11888;BME280;6003;42.756;23.130;2023-05-22T07:23:49;157762.97;;;20.70;62.58
11888;BME280;6003;42.756;23.130;2023-05-22T07:26:16;157781.66;;;20.78;60.82
11888;BME280;6003;42.756;23.130;2023-05-22T07:28:45;157753.69;;;20.67;65.54
11888;BME280;6003;42.756;23.130;2023-05-22T07:31:11;157636.44;;;20.22;60.47
11888;BME280;6003;42.756;23.130;2023-05-22T07:33:38;157512.69;;;19.74;61.41
11888;BME280;6003;42.756;23.130;2023-05-22T07:36:05;157498.03;;;19.69;61.68
11888;BME280;6003;42.756;23.130;2023-05-22T07:38:32;157503.31;;;19.71;62.30
11888;BME280;6003;42.756;23.130;2023-05-22T07:40:59;157488.75;;;19.65;62.12
11888;BME280;6003;42.756;23.130;2023-05-22T07:43:28;157427.44;;;19.42;62.97
11888;BME280;6003;42.756;23.130;2023-05-22T07:45:56;157431.44;;;19.43;64.12
11888;BME280;6003;42.756;23.130;2023-05-22T07:48:23;157400.84;;;19.31;61.31
11888;BME280;6003;42.756;23.130;2023-05-22T07:50:50;157491.38;;;19.66;62.06
11888;BME280;6003;42.756;23.130;2023-05-22T07:53:16;157563.22;;;19.94;62.43
11888;BME280;6003;42.756;23.130;2023-05-22T07:55:43;157579.22;;;20.00;58.47
11888;BME280;6003;42.756;23.130;2023-05-22T07:58:11;157521.97;;;19.78;59.13
11888;BME280;6003;42.756;23.130;2023-05-22T08:00:38;157597.84;;;20.07;61.42
11888;BME280;6003;42.756;23.130;2023-05-22T08:03:07;157607.16;;;20.11;60.90
11888;BME280;6003;42.756;23.130;2023-05-22T08:05:34;157616.50;;;20.14;57.78
11888;BME280;6003;42.756;23.130;2023-05-22T08:08:01;157635.13;;;20.21;61.92
11888;BME280;6003;42.756;23.130;2023-05-22T08:10:28;157659.06;;;20.31;56.61
11888;BME280;6003;42.756;23.130;2023-05-22T08:12:55;157715.00;;;20.52;56.96
11888;BME280;6003;42.756;23.130;2023-05-22T08:15:26;157786.94;;;20.80;58.17
11888;BME280;6003;42.756;23.130;2023-05-22T08:17:53;157837.56;;;20.99;57.35
11888;BME280;6003;42.756;23.130;2023-05-22T08:20:21;157941.53;;;21.39;61.82
11888;BME280;6003;42.756;23.130;2023-05-22T08:22:48;157858.88;;;21.07;55.36
11888;BME280;6003;42.756;23.130;2023-05-22T08:25:15;157781.66;;;20.78;56.30
11888;BME280;6003;42.756;23.130;2023-05-22T08:27:42;157684.41;;;20.40;58.33
11888;BME280;6003;42.756;23.130;2023-05-22T08:30:09;157732.38;;;20.59;60.11
11888;BME280;6003;42.756;23.130;2023-05-22T08:32:36;157770.97;;;20.73;58.71
11888;BME280;6003;42.756;23.130;2023-05-22T08:35:03;157840.22;;;21.00;57.29
11888;BME280;6003;42.756;23.130;2023-05-22T08:37:32;157904.19;;;21.25;59.69
11888;BME280;6003;42.756;23.130;2023-05-22T08:39:58;157842.91;;;21.01;56.28
11888;BME280;6003;42.756;23.130;2023-05-22T08:42:25;157858.88;;;21.07;56.28
11888;BME280;6003;42.756;23.130;2023-05-22T08:44:52;157797.63;;;20.84;57.08
11888;BME280;6003;42.756;23.130;2023-05-22T08:47:25;157813.59;;;20.90;53.54
11888;BME280;6003;42.756;23.130;2023-05-22T08:49:53;157765.69;;;20.71;56.44
11888;BME280;6003;42.756;23.130;2023-05-22T08:52:41;157824.25;;;20.94;55.96
11888;BME280;6003;42.756;23.130;2023-05-22T08:55:12;157872.22;;;21.12;58.55
11888;BME280;6003;42.756;23.130;2023-05-22T08:57:39;158000.16;;;21.61;54.32
11888;BME280;6003;42.756;23.130;2023-05-22T09:00:08;158081.47;;;21.93;55.94
11888;BME280;6003;42.756;23.130;2023-05-22T09:02:36;157900.16;;;21.23;51.31
11888;BME280;6003;42.756;23.130;2023-05-22T09:05:06;157956.19;;;21.45;52.26
11888;BME280;6003;42.756;23.130;2023-05-22T09:07:35;158068.13;;;21.88;54.38
11888;BME280;6003;42.756;23.130;2023-05-22T09:10:03;158096.13;;;21.98;52.66
11888;BME280;6003;42.756;23.130;2023-05-22T09:12:32;157972.19;;;21.51;52.11
11888;BME280;6003;42.756;23.130;2023-05-22T09:15:07;157944.19;;;21.40;54.71
11888;BME280;6003;42.756;23.130;2023-05-22T09:17:34;157826.94;;;20.95;52.21
11888;BME280;6003;42.756;23.130;2023-05-22T09:20:04;157894.88;;;21.21;54.73
11888;BME280;6003;42.756;23.130;2023-05-22T09:22:36;157842.91;;;21.01;51.42
11888;BME280;6003;42.756;23.130;2023-05-22T09:25:04;157760.34;;;20.69;51.52
11888;BME280;6003;42.756;23.130;2023-05-22T09:27:32;157669.75;;;20.35;52.99
11888;BME280;6003;42.756;23.130;2023-05-22T09:29:59;157664.41;;;20.33;52.45
11888;BME280;6003;42.756;23.130;2023-05-22T09:32:28;157741.66;;;20.62;52.35
11888;BME280;6003;42.756;23.130;2023-05-22T09:35:01;157808.25;;;20.88;53.71
11888;BME280;6003;42.756;23.130;2023-05-22T09:37:32;157816.25;;;20.91;54.17
11888;BME280;6003;42.756;23.130;2023-05-22T09:40:04;157645.78;;;20.25;54.40
11888;BME280;6003;42.756;23.130;2023-05-22T09:42:32;157547.25;;;19.88;54.84
11888;BME280;6003;42.756;23.130;2023-05-22T09:45:03;157543.28;;;19.86;57.16
11888;BME280;6003;42.756;23.130;2023-05-22T09:47:31;157528.66;;;19.80;55.47
11888;BME280;6003;42.756;23.130;2023-05-22T09:49:59;157544.59;;;19.87;58.21
11888;BME280;6003;42.756;23.130;2023-05-22T09:52:27;157478.00;;;19.61;56.47
11888;BME280;6003;42.756;23.130;2023-05-22T09:54:55;157470.03;;;19.58;58.06
11888;BME280;6003;42.756;23.130;2023-05-22T09:57:24;157555.22;;;19.91;61.11
11888;BME280;6003;42.756;23.130;2023-05-22T09:59:53;157717.72;;;20.53;60.38
11888;BME280;6003;42.756;23.130;2023-05-22T10:02:23;157864.22;;;21.09;55.89
11888;BME280;6003;42.756;23.130;2023-05-22T10:04:51;157880.22;;;21.15;54.21
11888;BME280;6003;42.756;23.130;2023-05-22T10:07:21;157954.88;;;21.44;57.16
11888;BME280;6003;42.756;23.130;2023-05-22T10:09:51;158064.09;;;21.86;54.01
11888;BME280;6003;42.756;23.130;2023-05-22T10:12:40;158125.41;;;22.09;55.44
11888;BME280;6003;42.756;23.130;2023-05-22T10:15:10;158189.47;;;22.34;54.98
11888;BME280;6003;42.756;23.130;2023-05-22T10:17:38;158220.13;;;22.46;52.66
11888;BME280;6003;42.756;23.130;2023-05-22T10:20:07;158266.78;;;22.64;54.38
11888;BME280;6003;42.756;23.130;2023-05-22T10:22:36;158248.16;;;22.57;51.25
11888;BME280;6003;42.756;23.130;2023-05-22T10:25:04;158270.81;;;22.65;52.36
11888;BME280;6003;42.756;23.130;2023-05-22T10:27:32;158336.16;;;22.90;51.76
11888;BME280;6003;42.756;23.130;2023-05-22T10:30:05;158422.88;;;23.24;53.94
11888;BME280;6003;42.756;23.130;2023-05-22T10:32:40;158368.22;;;23.03;48.60
11888;BME280;6003;42.756;23.130;2023-05-22T10:35:18;158289.47;;;22.72;50.01
11888;BME280;6003;42.756;23.130;2023-05-22T10:37:50;158240.16;;;22.53;50.49
11888;BME280;6003;42.756;23.130;2023-05-22T10:40:22;158224.16;;;22.47;55.86
11888;BME280;6003;42.756;23.130;2023-05-22T10:42:57;158144.09;;;22.17;50.18
11888;BME280;6003;42.756;23.130;2023-05-22T10:45:25;158053.47;;;21.82;50.77
11888;BME280;6003;42.756;23.130;2023-05-22T10:48:06;158032.13;;;21.74;54.92
11888;BME280;6003;42.756;23.130;2023-05-22T10:50:34;158064.09;;;21.86;56.25
11888;BME280;6003;42.756;23.130;2023-05-22T10:53:21;158016.16;;;21.68;57.59
11888;BME280;6003;42.756;23.130;2023-05-22T10:55:49;157930.84;;;21.35;55.91
11888;BME280;6003;42.756;23.130;2023-05-22T10:58:26;157838.91;;;21.00;56.52
11888;BME280;6003;42.756;23.130;2023-05-22T11:01:13;157767.00;;;20.72;57.33
11888;BME280;6003;42.756;23.130;2023-05-22T11:03:54;157703.00;;;20.47;59.00
11888;BME280;6003;42.756;23.130;2023-05-22T11:06:32;157563.22;;;19.94;58.45
11888;BME280;6003;42.756;23.130;2023-05-22T11:09:15;157502.00;;;19.70;59.18
11888;BME280;6003;42.756;23.130;2023-05-22T11:11:42;157480.66;;;19.62;59.30
11888;BME280;6003;42.756;23.130;2023-05-22T11:14:12;157502.00;;;19.70;61.61
11888;BME280;6003;42.756;23.130;2023-05-22T11:16:41;157563.22;;;19.94;61.75
11888;BME280;6003;42.756;23.130;2023-05-22T11:19:09;157592.50;;;20.05;59.81
11888;BME280;6003;42.756;23.130;2023-05-22T11:21:41;157555.22;;;19.91;60.31
11888;BME280;6003;42.756;23.130;2023-05-22T11:24:09;157549.94;;;19.89;58.36
11888;BME280;6003;42.756;23.130;2023-05-22T11:26:36;157572.56;;;19.97;60.16
11888;BME280;6003;42.756;23.130;2023-05-22T11:29:07;157724.38;;;20.56;61.29
11888;BME280;6003;42.756;23.130;2023-05-22T11:31:35;157826.94;;;20.95;61.56
11888;BME280;6003;42.756;23.130;2023-05-22T11:34:02;157974.81;;;21.52;65.04
11888;BME280;6003;42.756;23.130;2023-05-22T11:36:29;158128.09;;;22.11;61.39
11888;BME280;6003;42.756;23.130;2023-05-22T11:38:57;158252.13;;;22.58;60.74
11888;BME280;6003;42.756;23.130;2023-05-22T11:41:29;158265.47;;;22.63;59.11
11888;BME280;6003;42.756;23.130;2023-05-22T11:43:56;158234.81;;;22.51;60.29
11888;BME280;6003;42.756;23.130;2023-05-22T11:46:23;158213.47;;;22.43;62.05
11888;BME280;6003;42.756;23.130;2023-05-22T11:48:52;158130.75;;;22.12;65.04
11888;BME280;6003;42.756;23.130;2023-05-22T11:51:19;157984.19;;;21.55;64.87
11888;BME280;6003;42.756;23.130;2023-05-22T11:53:47;157930.84;;;21.35;66.21
11888;BME280;6003;42.756;23.130;2023-05-22T11:56:14;157856.25;;;21.06;63.01
11888;BME280;6003;42.756;23.130;2023-05-22T11:58:41;157375.53;;;19.22;66.93
11888;BME280;6003;42.756;23.130;2023-05-22T12:01:07;157059.03;;;18.00;74.51
11888;BME280;6003;42.756;23.130;2023-05-22T12:03:34;157028.47;;;17.88;74.84
11888;BME280;6003;42.756;23.130;2023-05-22T12:06:03;156967.28;;;17.65;76.52
11888;BME280;6003;42.756;23.130;2023-05-22T12:08:31;156964.66;;;17.64;75.98
11888;BME280;6003;42.756;23.130;2023-05-22T12:10:57;157021.81;;;17.86;77.89
11888;BME280;6003;42.756;23.130;2023-05-22T12:13:26;157065.69;;;18.02;77.73
11888;BME280;6003;42.756;23.130;2023-05-22T12:15:53;157142.75;;;18.32;78.79
11888;BME280;6003;42.756;23.130;2023-05-22T12:18:21;157209.25;;;18.58;76.98
11888;BME280;6003;42.756;23.130;2023-05-22T12:20:51;157285.09;;;18.87;77.50
11888;BME280;6003;42.756;23.130;2023-05-22T12:23:24;157286.47;;;18.87;73.51
11888;BME280;6003;42.756;23.130;2023-05-22T12:25:58;157339.66;;;19.08;75.28
11888;BME280;6003;42.756;23.130;2023-05-22T12:28:25;157350.28;;;19.12;74.04
11888;BME280;6003;42.756;23.130;2023-05-22T12:30:53;157363.59;;;19.17;73.34
11888;BME280;6003;42.756;23.130;2023-05-22T12:33:24;157414.16;;;19.36;72.90
11888;BME280;6003;42.756;23.130;2023-05-22T12:35:52;157460.72;;;19.54;70.40
11888;BME280;6003;42.756;23.130;2023-05-22T12:38:20;157511.34;;;19.74;71.14
11888;BME280;6003;42.756;23.130;2023-05-22T12:40:49;157502.00;;;19.70;69.34
11888;BME280;6003;42.756;23.130;2023-05-22T12:43:22;157507.34;;;19.72;69.86
11888;BME280;6003;42.756;23.130;2023-05-22T12:45:50;157576.53;;;19.99;71.13
11888;BME280;6003;42.756;23.130;2023-05-22T12:48:17;157615.13;;;20.14;70.37
11888;BME280;6003;42.756;23.130;2023-05-22T12:50:45;157648.44;;;20.26;70.34
11888;BME280;6003;42.756;23.130;2023-05-22T12:53:12;157728.41;;;20.57;67.91
11888;BME280;6003;42.756;23.130;2023-05-22T12:55:39;157751.03;;;20.66;66.67
11888;BME280;6003;42.756;23.130;2023-05-22T12:58:07;157775.00;;;20.75;66.03